Time;durP1;ratioP1;P1;durP2;ratioP2;P2;SDS_P1;SDS_P2;PMS_P1;PMS_P2;Temp;Humidity;BMP_temperature;BMP_pressure;BME280_temperature;BME280_humidity;BME280_pressure;Samples;Min_cycle;Max_cycle;Signal;HPM_P1;HPM_P2
2021/06/05 00:02:22;;;;;;;2.63;2.53;;;25.90;74.40;;;;;;5053487;28;20503;-87
2021/06/05 00:04:49;;;;;;;3.23;3.03;;;25.90;74.40;;;;;;5053454;28;20449;-87
2021/06/05 00:07:16;;;;;;;2.80;2.60;;;25.90;74.30;;;;;;5052412;28;20550;-87
2021/06/05 00:09:43;;;;;;;3.10;2.90;;;25.80;74.20;;;;;;5053169;28;20441;-87
2021/06/05 00:12:12;;;;;;;3.23;3.03;;;25.80;74.20;;;;;;5053184;28;20505;-86
2021/06/05 00:14:38;;;;;;;3.17;2.97;;;25.80;74.30;;;;;;5053333;28;20443;-87
2021/06/05 00:17:05;;;;;;;3.30;3.10;;;25.80;74.20;;;;;;5053405;28;20440;-87
2021/06/05 00:19:31;;;;;;;3.53;3.23;;;25.80;74.30;;;;;;5053315;28;20459;-86
2021/06/05 00:21:59;;;;;;;3.10;2.90;;;25.90;74.40;;;;;;5053068;28;20469;-87
2021/06/05 00:24:25;;;;;;;3.10;2.90;;;25.80;74.30;;;;;;5053320;28;20479;-87
2021/06/05 00:26:53;;;;;;;3.23;3.03;;;25.80;74.30;;;;;;5053361;28;20440;-87
2021/06/05 00:29:22;;;;;;;3.03;2.83;;;25.80;74.30;;;;;;5053197;28;20898;-87
2021/06/05 00:31:48;;;;;;;3.00;2.80;;;25.80;74.30;;;;;;5053287;28;20571;-87
2021/06/05 00:34:15;;;;;;;2.67;2.57;;;25.80;74.30;;;;;;5053020;28;20439;-87
2021/06/05 00:36:42;;;;;;;2.93;2.73;;;25.80;74.30;;;;;;5053129;28;20447;-87
2021/06/05 00:39:11;;;;;;;2.60;2.50;;;25.80;74.20;;;;;;5052631;28;20440;-87
2021/06/05 00:41:38;;;;;;;3.53;3.33;;;25.80;74.30;;;;;;5052930;28;20433;-87
2021/06/05 00:44:08;;;;;;;3.37;2.93;;;26.00;74.50;;;;;;5053081;28;20444;-87
2021/06/05 00:46:35;;;;;;;2.73;2.53;;;25.80;74.30;;;;;;5052791;28;20494;-87
2021/06/05 00:49:03;;;;;;;3.00;2.83;;;25.80;74.40;;;;;;5053133;28;20490;-87
2021/06/05 00:51:35;;;;;;;3.40;3.20;;;25.80;74.30;;;;;;5053120;28;20460;-87
2021/06/05 00:54:01;;;;;;;3.30;3.10;;;25.80;74.20;;;;;;5053357;28;20449;-87
2021/06/05 00:56:29;;;;;;;3.50;3.30;;;25.80;74.30;;;;;;5053241;28;20531;-87
2021/06/05 00:58:56;;;;;;;2.50;2.40;;;25.80;74.40;;;;;;5053192;28;20467;-87
2021/06/05 01:01:25;;;;;;;3.17;2.97;;;25.90;74.50;;;;;;5053072;28;21006;-87
2021/06/05 01:03:52;;;;;;;2.73;2.53;;;25.80;74.40;;;;;;5053071;28;20491;-86
2021/06/05 01:06:24;;;;;;;3.13;2.93;;;25.80;74.40;;;;;;5053345;28;20536;-86
2021/06/05 01:08:57;;;;;;;3.03;2.83;;;25.90;74.40;;;;;;5053944;28;20796;-87
2021/06/05 01:11:33;;;;;;;2.60;2.50;;;25.80;74.40;;;;;;5054302;28;20493;-87
2021/06/05 01:14:03;;;;;;;3.70;3.50;;;25.80;74.30;;;;;;5053395;28;20439;-87
2021/06/05 01:16:31;;;;;;;2.87;2.67;;;25.80;74.40;;;;;;5052741;28;20510;-87
2021/06/05 01:19:04;;;;;;;2.20;2.10;;;25.80;74.30;;;;;;5054748;28;20440;-87
2021/06/05 01:21:56;;;;;;;2.60;2.50;;;25.90;74.50;;;;;;5056404;28;20452;-87
2021/06/05 01:24:34;;;;;;;3.40;3.20;;;25.80;74.30;;;;;;5056493;28;20436;-87
2021/06/05 01:27:09;;;;;;;2.70;2.60;;;25.80;74.40;;;;;;5056768;28;20440;-87
2021/06/05 01:29:39;;;;;;;3.40;3.20;;;25.80;75.30;;;;;;5056067;28;20473;-87
2021/06/05 01:32:09;;;;;;;3.03;2.83;;;25.80;74.40;;;;;;5055895;28;20454;-87
2021/06/05 01:34:39;;;;;;;2.97;2.77;;;25.80;74.40;;;;;;5056219;28;20441;-87
2021/06/05 01:37:09;;;;;;;2.60;2.50;;;25.80;74.40;;;;;;5055856;28;20437;-89
2021/06/05 01:39:37;;;;;;;3.03;2.83;;;25.80;74.40;;;;;;5055908;28;20439;-87
2021/06/05 01:42:09;;;;;;;2.93;2.77;;;25.80;74.40;;;;;;5055490;28;20532;-87
2021/06/05 01:44:36;;;;;;;2.50;2.40;;;25.80;74.40;;;;;;5055587;28;20446;-87
2021/06/05 01:47:04;;;;;;;3.20;3.00;;;25.80;74.40;;;;;;5055725;28;20924;-87
2021/06/05 01:49:30;;;;;;;3.03;2.83;;;25.80;74.40;;;;;;5055675;28;20466;-87
2021/06/05 01:52:05;;;;;;;2.47;2.37;;;25.80;74.40;;;;;;5055674;28;20445;-88
2021/06/05 01:54:36;;;;;;;2.93;2.73;;;25.80;74.40;;;;;;5055526;28;20447;-87
2021/06/05 01:57:07;;;;;;;2.87;2.70;;;25.80;74.40;;;;;;5055634;28;20788;-87
2021/06/05 01:59:34;;;;;;;2.80;2.60;;;25.80;74.40;;;;;;5055598;28;20445;-87
2021/06/05 02:02:03;;;;;;;3.07;2.87;;;25.90;74.50;;;;;;5055510;28;20429;-87
2021/06/05 02:04:30;;;;;;;3.10;2.90;;;25.80;74.50;;;;;;5055427;28;20439;-87
2021/06/05 02:06:57;;;;;;;2.93;2.73;;;25.80;74.40;;;;;;5055313;28;20441;-86
2021/06/05 02:09:25;;;;;;;2.20;2.10;;;25.80;74.40;;;;;;5057885;28;20443;-86
2021/06/05 02:11:56;;;;;;;3.40;3.20;;;25.80;74.50;;;;;;5057443;28;20444;-86
2021/06/05 02:14:30;;;;;;;3.03;2.83;;;25.80;74.40;;;;;;5056761;28;20452;-86
2021/06/05 02:16:57;;;;;;;2.63;2.53;;;25.80;74.40;;;;;;5056001;28;20441;-87
2021/06/05 02:19:27;;;;;;;2.20;2.10;;;25.80;74.40;;;;;;5055415;28;20448;-86
2021/06/05 02:21:57;;;;;;;3.13;2.93;;;25.80;74.50;;;;;;5055100;28;20442;-86
2021/06/05 02:24:28;;;;;;;2.70;2.60;;;25.80;74.50;;;;;;5055361;28;20449;-87
2021/06/05 02:26:54;;;;;;;2.70;2.60;;;25.80;74.50;;;;;;5055390;28;20441;-87
2021/06/05 02:29:26;;;;;;;2.63;2.53;;;25.80;74.40;;;;;;5054211;28;20464;-87
2021/06/05 02:31:53;;;;;;;2.63;2.47;;;25.80;74.50;;;;;;5054697;28;20437;-87
2021/06/05 02:34:25;;;;;;;3.03;2.83;;;25.80;74.50;;;;;;5055111;28;20510;-87
2021/06/05 02:36:55;;;;;;;2.23;2.13;;;25.80;74.40;;;;;;5055229;28;20437;-87
2021/06/05 02:39:22;;;;;;;2.80;2.60;;;25.80;74.40;;;;;;5054783;28;20445;-87
2021/06/05 02:41:51;;;;;;;3.23;3.03;;;25.80;74.40;;;;;;5054849;28;20470;-87
2021/06/05 02:44:20;;;;;;;3.10;2.90;;;25.80;74.40;;;;;;5054580;28;20445;-87
2021/06/05 02:46:49;;;;;;;3.40;3.20;;;25.80;74.40;;;;;;5054485;28;20477;-87
2021/06/05 02:49:26;;;;;;;2.93;2.73;;;25.80;74.40;;;;;;5054761;28;20455;-87
2021/06/05 02:51:55;;;;;;;3.20;3.00;;;25.80;74.40;;;;;;5054581;28;20952;-87
2021/06/05 02:54:23;;;;;;;2.63;2.53;;;25.80;74.50;;;;;;5054530;28;20804;-87
2021/06/05 02:56:50;;;;;;;3.40;3.20;;;25.80;74.50;;;;;;5054650;28;20439;-87
2021/06/05 02:59:16;;;;;;;2.87;2.67;;;25.80;74.50;;;;;;5054556;28;20468;-87
2021/06/05 03:01:43;;;;;;;3.00;2.80;;;25.80;74.40;;;;;;5054762;28;20454;-87
2021/06/05 03:04:11;;;;;;;3.00;2.80;;;25.80;74.50;;;;;;5054538;28;20489;-86
2021/06/05 03:06:37;;;;;;;2.83;2.63;;;25.80;74.40;;;;;;5054255;28;20437;-87
2021/06/05 03:09:04;;;;;;;3.10;2.90;;;25.90;74.50;;;;;;5054194;28;20449;-87
2021/06/05 03:11:31;;;;;;;3.27;3.07;;;25.80;74.40;;;;;;5054393;28;20463;-87
2021/06/05 03:13:57;;;;;;;3.30;3.10;;;25.80;74.40;;;;;;5054339;28;20448;-87
2021/06/05 03:16:25;;;;;;;2.50;2.40;;;25.80;74.50;;;;;;5054102;28;20472;-87
2021/06/05 03:18:51;;;;;;;2.40;2.30;;;25.80;74.40;;;;;;5054297;28;20451;-87
2021/06/05 03:21:21;;;;;;;2.47;2.37;;;25.80;74.40;;;;;;5054048;28;20803;-86
2021/06/05 03:23:49;;;;;;;2.10;2.00;;;25.80;74.40;;;;;;5054107;28;20487;-87
2021/06/05 03:26:18;;;;;;;2.90;2.80;;;25.90;74.50;;;;;;5054169;28;20803;-87
2021/06/05 03:28:44;;;;;;;2.80;2.70;;;25.80;74.40;;;;;;5053708;28;20482;-87
2021/06/05 03:31:12;;;;;;;2.53;2.33;;;25.80;74.50;;;;;;5054086;28;20452;-86
2021/06/05 03:33:39;;;;;;;2.27;2.17;;;25.80;74.50;;;;;;5053786;28;20448;-87
2021/06/05 03:36:07;;;;;;;2.20;2.10;;;25.80;74.40;;;;;;5053884;28;20449;-87
2021/06/05 03:38:36;;;;;;;2.70;2.50;;;25.80;74.50;;;;;;5053747;28;20917;-87
2021/06/05 03:41:02;;;;;;;2.87;2.67;;;25.80;74.50;;;;;;5053349;28;20967;-86
2021/06/05 03:43:29;;;;;;;2.23;2.13;;;25.80;74.40;;;;;;5053629;28;20485;-87
2021/06/05 03:45:55;;;;;;;2.30;2.20;;;25.80;74.50;;;;;;5053371;28;20475;-87
2021/06/05 03:48:21;;;;;;;2.47;2.27;;;25.80;74.40;;;;;;5053412;28;20441;-87
2021/06/05 03:50:50;;;;;;;2.40;2.20;;;25.80;74.40;;;;;;5053744;28;20932;-87
2021/06/05 03:53:19;;;;;;;2.00;1.90;;;25.80;74.50;;;;;;5053703;28;20491;-87
2021/06/05 03:55:46;;;;;;;2.20;2.10;;;25.80;74.50;;;;;;5053603;28;20448;-87
2021/06/05 03:58:14;;;;;;;2.30;2.20;;;25.80;74.50;;;;;;5053398;28;20464;-87
2021/06/05 04:00:42;;;;;;;2.50;2.30;;;25.80;74.40;;;;;;5053349;28;20984;-87
2021/06/05 04:03:10;;;;;;;2.40;2.30;;;25.80;74.50;;;;;;5053521;28;20603;-87
2021/06/05 04:05:37;;;;;;;2.30;2.20;;;25.70;74.40;;;;;;5053436;28;20495;-87
2021/06/05 04:08:06;;;;;;;2.40;2.30;;;25.70;74.30;;;;;;5053353;28;20528;-87
2021/06/05 04:10:32;;;;;;;2.67;2.57;;;25.80;74.50;;;;;;5053174;28;20440;-86
2021/06/05 04:13:00;;;;;;;2.00;1.90;;;25.80;74.50;;;;;;5053316;28;20443;-87
2021/06/05 04:15:28;;;;;;;2.23;2.13;;;25.80;74.50;;;;;;5053453;28;20492;-86
2021/06/05 04:17:59;;;;;;;2.50;2.40;;;25.80;74.40;;;;;;5053360;28;20547;-87
2021/06/05 04:20:26;;;;;;;2.13;2.03;;;25.80;74.50;;;;;;5053356;28;20534;-87
2021/06/05 04:22:52;;;;;;;1.83;1.73;;;25.70;74.40;;;;;;5053459;28;20488;-87
2021/06/05 04:25:19;;;;;;;2.07;1.97;;;25.80;74.40;;;;;;5053471;28;20474;-87
2021/06/05 04:27:46;;;;;;;2.97;2.77;;;25.80;74.40;;;;;;5053035;28;20933;-89
2021/06/05 04:30:16;;;;;;;2.00;1.90;;;25.70;74.30;;;;;;5053171;28;20441;-87
2021/06/05 04:32:43;;;;;;;2.30;2.20;;;25.80;74.50;;;;;;5053376;28;20535;-87
2021/06/05 04:35:10;;;;;;;2.40;2.30;;;25.70;74.40;;;;;;5053496;28;20435;-87
2021/06/05 04:37:37;;;;;;;2.53;2.43;;;25.80;74.50;;;;;;5052944;28;20448;-87
2021/06/05 04:40:04;;;;;;;2.20;2.10;;;25.70;74.40;;;;;;5053235;28;20895;-87
2021/06/05 04:42:31;;;;;;;2.50;2.40;;;25.70;74.40;;;;;;5053124;28;20522;-87
2021/06/05 04:44:57;;;;;;;2.40;2.30;;;25.70;74.40;;;;;;5053132;28;20541;-87
2021/06/05 04:47:25;;;;;;;2.00;1.90;;;25.80;74.60;;;;;;5053308;28;20451;-86
2021/06/05 04:49:51;;;;;;;2.20;2.10;;;25.80;75.30;;;;;;5053142;28;20468;-87
2021/06/05 04:52:18;;;;;;;1.97;1.87;;;25.70;74.40;;;;;;5052899;28;20449;-87
2021/06/05 04:54:44;;;;;;;2.23;2.13;;;25.70;74.40;;;;;;5056321;28;20444;-87
2021/06/05 04:57:10;;;;;;;2.10;2.00;;;25.70;74.40;;;;;;5056614;28;20489;-87
2021/06/05 04:59:36;;;;;;;2.30;2.20;;;25.70;74.30;;;;;;5056586;28;20444;-87
2021/06/05 05:02:03;;;;;;;1.90;1.80;;;25.70;74.30;;;;;;5056890;28;20440;-87
2021/06/05 05:04:31;;;;;;;2.57;2.43;;;25.70;75.20;;;;;;5056685;28;20500;-87
2021/06/05 05:06:57;;;;;;;2.40;2.30;;;25.70;74.30;;;;;;5056708;28;20452;-87
2021/06/05 05:09:23;;;;;;;2.33;2.23;;;25.70;74.40;;;;;;5056581;28;20449;-87
2021/06/05 05:11:50;;;;;;;2.37;2.27;;;25.70;74.30;;;;;;5056382;28;20917;-87
2021/06/05 05:14:16;;;;;;;2.10;2.00;;;25.70;74.30;;;;;;5056523;28;20464;-86
2021/06/05 05:16:43;;;;;;;2.10;2.00;;;25.70;74.40;;;;;;5056404;28;20440;-87
2021/06/05 05:19:09;;;;;;;1.97;1.87;;;25.70;74.40;;;;;;5056387;28;20447;-89
2021/06/05 05:21:37;;;;;;;2.37;2.27;;;25.90;74.50;;;;;;5056313;28;20434;-86
2021/06/05 05:24:04;;;;;;;2.37;2.27;;;25.70;74.20;;;;;;5056294;28;20479;-87
2021/06/05 05:26:30;;;;;;;1.97;1.87;;;25.70;74.30;;;;;;5056445;28;20452;-86
2021/06/05 05:28:57;;;;;;;2.47;2.30;;;25.70;74.30;;;;;;5055893;28;20460;-86
2021/06/05 05:31:26;;;;;;;2.10;2.00;;;25.70;74.20;;;;;;5056261;28;20440;-88
2021/06/05 05:33:53;;;;;;;2.47;2.37;;;25.70;74.20;;;;;;5056269;28;20443;-87
2021/06/05 05:36:24;;;;;;;2.10;2.00;;;25.70;74.20;;;;;;5056221;28;20440;-87
2021/06/05 05:38:52;;;;;;;2.10;2.00;;;25.70;74.30;;;;;;5055857;28;20483;-87
2021/06/05 05:41:20;;;;;;;2.10;2.00;;;25.70;74.30;;;;;;5056069;28;20446;-89
2021/06/05 05:43:46;;;;;;;2.30;2.20;;;25.70;74.30;;;;;;5055791;28;21038;-87
2021/06/05 05:46:14;;;;;;;2.07;1.97;;;25.70;74.40;;;;;;5055658;28;20476;-87
2021/06/05 05:48:41;;;;;;;2.20;2.10;;;25.70;74.40;;;;;;5055814;28;20448;-90
2021/06/05 05:51:09;;;;;;;2.60;2.43;;;25.70;74.50;;;;;;5055577;28;20440;-87
2021/06/05 05:53:36;;;;;;;2.20;2.10;;;25.70;74.50;;;;;;5055874;28;20951;-87
2021/06/05 05:56:05;;;;;;;2.10;2.00;;;25.70;74.50;;;;;;5055763;28;20957;-87
2021/06/05 05:58:35;;;;;;;2.33;2.23;;;25.70;74.50;;;;;;5055495;28;20997;-87
2021/06/05 06:01:01;;;;;;;2.50;2.40;;;25.70;74.50;;;;;;5055680;28;20449;-87
2021/06/05 06:03:27;;;;;;;3.07;2.87;;;25.70;74.50;;;;;;5055706;28;20495;-89
2021/06/05 06:05:53;;;;;;;2.50;2.30;;;25.70;74.50;;;;;;5055455;28;20445;-88
2021/06/05 06:08:21;;;;;;;3.13;3.03;;;25.70;74.40;;;;;;5055513;28;20948;-84
2021/06/05 06:10:48;;;;;;;2.90;2.70;;;25.70;74.60;;;;;;5055591;28;20529;-84
2021/06/05 06:13:17;;;;;;;3.13;2.27;;;25.80;74.30;;;;;;5074172;28;20447;-87
2021/06/05 06:15:43;;;;;;;1.90;1.80;;;25.70;74.20;;;;;;5075325;28;20494;-86
2021/06/05 06:18:12;;;;;;;3.10;2.90;;;25.70;74.10;;;;;;5075546;28;20432;-89
2021/06/05 06:20:42;;;;;;;2.53;2.43;;;25.70;74.20;;;;;;5075357;28;20437;-86
2021/06/05 06:23:10;;;;;;;2.40;2.23;;;25.70;74.10;;;;;;5057686;28;21128;-86
2021/06/05 06:25:39;;;;;;;2.13;1.80;;;25.70;73.70;;;;;;5072342;28;20457;-87
2021/06/05 06:28:07;;;;;;;2.23;2.13;;;25.70;73.50;;;;;;5074953;28;20551;-86
2021/06/05 06:30:37;;;;;;;3.67;3.47;;;25.70;73.50;;;;;;5075416;28;20428;-88
2021/06/05 06:33:07;;;;;;;4.87;4.57;;;25.70;73.60;;;;;;5074956;28;20433;-85
2021/06/05 06:35:35;;;;;;;14.27;12.87;;;25.70;74.30;;;;;;5074785;28;20462;-85
2021/06/05 06:38:04;;;;;;;20.70;18.70;;;25.70;75.50;;;;;;5074803;28;20837;-85
2021/06/05 06:40:35;;;;;;;29.83;24.13;;;25.70;78.30;;;;;;5075065;28;20447;-88
2021/06/05 06:43:03;;;;;;;32.37;25.73;;;25.70;79.80;;;;;;5074859;28;20489;-89
2021/06/05 06:45:29;;;;;;;27.40;24.33;;;25.70;80.40;;;;;;5074477;28;20478;-87
2021/06/05 06:47:58;;;;;;;30.27;27.00;;;25.60;80.70;;;;;;5071655;28;20517;-88
2021/06/05 06:50:26;;;;;;;40.63;33.80;;;25.60;81.00;;;;;;5074758;28;20511;-87
2021/06/05 06:52:53;;;;;;;37.77;31.13;;;25.80;82.00;;;;;;5078319;28;20474;-87
2021/06/05 06:55:21;;;;;;;35.43;29.30;;;25.60;82.70;;;;;;5078203;28;20531;-85
2021/06/05 06:57:48;;;;;;;32.27;28.27;;;25.60;82.80;;;;;;5074987;28;20463;-82
2021/06/05 07:00:19;;;;;;;36.03;30.23;;;25.70;82.50;;;;;;5077064;28;20465;-87
2021/06/05 07:02:46;;;;;;;34.80;31.10;;;25.50;82.40;;;;;;5076763;28;20474;-85
2021/06/05 07:05:13;;;;;;;39.43;32.23;;;25.50;83.00;;;;;;5075491;28;20511;-83
2021/06/05 07:07:39;;;;;;;43.10;34.57;;;25.50;83.60;;;;;;5074121;28;20451;-83
2021/06/05 07:10:07;;;;;;;38.80;32.23;;;25.50;84.90;;;;;;5072285;28;20453;-83
2021/06/05 07:12:34;;;;;;;41.30;34.00;;;25.50;84.20;;;;;;5074463;28;20518;-87
2021/06/05 07:15:00;;;;;;;48.20;32.83;;;25.50;84.70;;;;;;5073913;28;20545;-87
2021/06/05 07:17:26;;;;;;;36.67;30.87;;;25.50;85.00;;;;;;5073460;28;20443;-87
2021/06/05 07:19:53;;;;;;;38.87;31.40;;;25.50;85.30;;;;;;5074187;28;20560;-87
2021/06/05 07:22:20;;;;;;;33.63;29.13;;;25.50;84.70;;;;;;5074840;28;20442;-87
2021/06/05 07:24:47;;;;;;;39.73;32.73;;;25.50;84.70;;;;;;5073385;28;20486;-87
2021/06/05 07:27:13;;;;;;;36.03;31.77;;;25.50;84.10;;;;;;5071811;28;20554;-87
2021/06/05 07:29:40;;;;;;;39.77;33.37;;;25.50;84.70;;;;;;5071659;28;20872;-87
2021/06/05 07:32:07;;;;;;;36.17;32.30;;;25.50;85.00;;;;;;5072185;28;20449;-87
2021/06/05 07:34:34;;;;;;;37.17;33.17;;;25.60;85.30;;;;;;5072179;28;20431;-87
2021/06/05 07:37:04;;;;;;;36.40;31.97;;;25.60;84.90;;;;;;5071946;28;20453;-89
2021/06/05 07:39:32;;;;;;;33.17;29.60;;;25.50;85.00;;;;;;5073243;28;20500;-89
2021/06/05 07:42:00;;;;;;;34.80;31.00;;;25.50;84.70;;;;;;5073718;28;20431;-88
2021/06/05 07:44:27;;;;;;;37.47;29.17;;;25.50;84.20;;;;;;5073773;28;20491;-84
2021/06/05 07:46:57;;;;;;;32.33;28.73;;;25.60;84.20;;;;;;5073510;28;20498;-85
2021/06/05 07:49:24;;;;;;;37.80;29.57;;;25.60;83.60;;;;;;5073513;28;20451;-87
2021/06/05 07:51:51;;;;;;;37.10;33.10;;;25.60;83.40;;;;;;5073532;28;20927;-84
2021/06/05 07:54:18;;;;;;;36.37;31.10;;;25.60;84.90;;;;;;5073723;28;21132;-86
2021/06/05 07:56:48;;;;;;;38.20;32.37;;;25.60;86.00;;;;;;5073669;28;20436;-85
2021/06/05 07:59:15;;;;;;;36.80;32.00;;;25.60;86.20;;;;;;5073433;28;20934;-85
2021/06/05 08:01:41;;;;;;;37.37;32.80;;;25.60;86.30;;;;;;5073643;28;20444;-86
2021/06/05 08:04:08;;;;;;;40.87;36.40;;;25.60;86.20;;;;;;5073535;28;20811;-84
2021/06/05 08:06:34;;;;;;;38.13;33.53;;;25.60;86.20;;;;;;5073372;28;20440;-85
2021/06/05 08:09:00;;;;;;;36.53;32.10;;;25.50;86.30;;;;;;5073034;28;20451;-84
2021/06/05 08:11:27;;;;;;;40.70;34.67;;;25.50;85.30;;;;;;5073216;28;20448;-85
2021/06/05 08:13:54;;;;;;;41.50;34.87;;;25.50;85.70;;;;;;5073319;28;20443;-86
2021/06/05 08:16:21;;;;;;;39.50;33.20;;;25.50;86.00;;;;;;5073176;28;21009;-85
2021/06/05 08:18:47;;;;;;;41.17;32.87;;;25.50;85.90;;;;;;5073527;28;20435;-85
2021/06/05 08:21:15;;;;;;;39.47;34.43;;;25.50;86.10;;;;;;5073243;28;20434;-85
2021/06/05 08:23:42;;;;;;;42.33;34.40;;;25.50;86.20;;;;;;5073167;28;20490;-85
2021/06/05 08:26:11;;;;;;;33.80;30.10;;;25.50;87.00;;;;;;5073444;28;20500;-85
2021/06/05 08:28:38;;;;;;;35.57;31.30;;;25.50;86.70;;;;;;5074670;28;20973;-85
2021/06/05 08:31:09;;;;;;;36.40;31.00;;;25.50;86.40;;;;;;5077268;28;20500;-85
2021/06/05 08:33:35;;;;;;;37.47;33.27;;;25.50;86.50;;;;;;5077237;28;20442;-86
2021/06/05 08:36:02;;;;;;;38.43;34.53;;;25.50;87.00;;;;;;5077079;28;20481;-84
2021/06/05 08:38:29;;;;;;;32.60;29.10;;;25.50;87.40;;;;;;5076972;28;20448;-85
2021/06/05 08:41:00;;;;;;;28.07;25.23;;;25.50;87.30;;;;;;5077077;28;20526;-85
2021/06/05 08:43:31;;;;;;;36.63;29.70;;;25.50;86.60;;;;;;5076623;28;20467;-89
2021/06/05 08:46:00;;;;;;;33.00;28.90;;;25.40;86.00;;;;;;5076855;28;20471;-89
2021/06/05 08:48:28;;;;;;;30.37;27.00;;;25.50;86.20;;;;;;5077072;28;20455;-89
2021/06/05 08:51:02;;;;;;;31.07;27.80;;;25.40;86.10;;;;;;5076782;28;20460;-89
2021/06/05 08:53:29;;;;;;;29.77;26.77;;;25.50;86.40;;;;;;5076895;28;20430;-89
2021/06/05 08:55:59;;;;;;;35.43;28.50;;;25.50;86.10;;;;;;5077109;28;20572;-89
2021/06/05 08:58:29;;;;;;;32.90;29.57;;;25.50;86.10;;;;;;5079442;28;20567;-88
2021/06/05 09:00:59;;;;;;;31.63;28.57;;;25.50;86.20;;;;;;5077189;28;20442;-89
2021/06/05 09:03:28;;;;;;;29.00;26.00;;;25.50;85.70;;;;;;5078209;28;20476;-89
2021/06/05 09:05:58;;;;;;;27.83;24.70;;;25.50;85.10;;;;;;5077050;28;20442;-89
2021/06/05 09:08:25;;;;;;;27.07;24.37;;;25.50;84.20;;;;;;5076519;28;20444;-89
2021/06/05 09:10:54;;;;;;;22.77;20.67;;;25.50;83.40;;;;;;5076757;28;20474;-88
2021/06/05 09:13:20;;;;;;;28.03;22.60;;;25.50;82.80;;;;;;5076484;28;20458;-88
2021/06/05 09:15:47;;;;;;;25.30;22.57;;;25.50;82.10;;;;;;5076683;28;20444;-87
2021/06/05 09:18:14;;;;;;;27.80;24.87;;;25.50;82.70;;;;;;5072847;28;20450;-86
2021/06/05 09:20:44;;;;;;;28.10;24.17;;;25.60;83.60;;;;;;5076229;28;20439;-84
2021/06/05 09:23:29;;;;;;;30.57;27.30;;;25.60;84.80;;;;;;5076884;28;20470;-93
2021/06/05 09:25:57;;;;;;;40.07;28.07;;;25.60;84.40;;;;;;5076730;28;20474;-85
2021/06/05 09:28:26;;;;;;;26.90;23.27;;;25.60;84.70;;;;;;5076303;28;20459;-84
2021/06/05 09:30:58;;;;;;;31.10;25.37;;;25.60;84.00;;;;;;5076522;28;20969;-86
2021/06/05 09:33:31;;;;;;;28.77;25.02;;;25.60;83.90;;;;;;5075907;28;20485;-89
2021/06/05 09:38:53;;;;;;;22.47;20.13;;;25.70;83.70;;;;;;5149703;27;143360;-85
2021/06/05 09:41:24;;;;;;;23.27;20.70;;;25.60;82.50;;;;;;5152551;27;20436;-85
2021/06/05 09:43:53;;;;;;;20.63;18.63;;;25.60;82.40;;;;;;5152152;27;20495;-86
2021/06/05 09:46:27;;;;;;;19.70;17.60;;;25.70;81.90;;;;;;5153534;27;20445;-90
2021/06/05 09:49:11;;;;;;;20.13;18.03;;;25.70;81.40;;;;;;5153882;27;20462;-89
2021/06/05 09:51:40;;;;;;;21.77;18.47;;;25.60;80.80;;;;;;5153837;27;21019;-89
2021/06/05 09:54:12;;;;;;;22.50;19.37;;;25.60;80.80;;;;;;5154484;27;20443;-89
2021/06/05 09:56:41;;;;;;;22.77;20.40;;;25.70;80.30;;;;;;5161796;27;20451;-89
2021/06/05 09:59:17;;;;;;;20.97;19.03;;;25.70;80.50;;;;;;5139165;27;20451;-89
2021/06/05 10:01:56;;;;;;;19.50;17.30;;;25.70;80.40;;;;;;5137172;27;20435;-89
2021/06/05 10:04:34;;;;;;;18.83;17.07;;;25.80;80.10;;;;;;5153747;27;20428;-89
2021/06/05 10:07:03;;;;;;;19.73;17.73;;;25.80;79.90;;;;;;5137216;27;20966;-89
2021/06/05 10:09:36;;;;;;;20.70;18.60;;;25.80;79.90;;;;;;5132661;28;20447;-89
2021/06/05 10:12:06;;;;;;;19.77;17.87;;;25.80;80.30;;;;;;5133642;28;20453;-89
2021/06/05 10:14:50;;;;;;;22.10;19.90;;;25.80;81.40;;;;;;5132657;28;20533;-87
2021/06/05 10:17:22;;;;;;;21.23;18.97;;;25.90;80.60;;;;;;5116201;28;20479;-87
2021/06/05 10:19:54;;;;;;;23.50;21.10;;;25.90;80.40;;;;;;5133228;28;20438;-87
2021/06/05 10:22:22;;;;;;;24.97;22.20;;;26.00;81.00;;;;;;5133226;28;20536;-87
2021/06/05 10:24:57;;;;;;;22.47;20.17;;;26.00;80.90;;;;;;5132740;28;20492;-87
2021/06/05 10:27:29;;;;;;;22.30;19.97;;;26.00;81.10;;;;;;5132265;28;20458;-87
2021/06/05 10:30:02;;;;;;;22.67;20.27;;;26.00;81.20;;;;;;5132674;28;20426;-88
2021/06/05 10:32:32;;;;;;;18.20;16.50;;;26.10;81.20;;;;;;5131632;28;20845;-84
2021/06/05 10:35:04;;;;;;;18.10;15.77;;;26.00;80.60;;;;;;5131610;28;20434;-83
2021/06/05 10:37:35;;;;;;;18.10;16.40;;;26.10;80.10;;;;;;5131423;28;20493;-85
2021/06/05 10:40:05;;;;;;;19.00;17.00;;;26.00;80.00;;;;;;5147966;27;20487;-84
2021/06/05 10:42:44;;;;;;;17.37;15.57;;;26.10;79.90;;;;;;5152867;27;20447;-87
2021/06/05 10:45:14;;;;;;;19.57;17.67;;;26.10;79.60;;;;;;5152079;27;20443;-87
2021/06/05 10:47:48;;;;;;;21.80;19.50;;;26.00;79.30;;;;;;5152248;27;20488;-87
2021/06/05 10:50:21;;;;;;;20.73;18.57;;;26.10;79.30;;;;;;5138393;27;20441;-87
2021/06/05 10:52:52;;;;;;;19.33;17.60;;;26.10;79.30;;;;;;5138635;27;20437;-88
2021/06/05 10:55:25;;;;;;;20.40;18.40;;;26.10;79.80;;;;;;5138629;27;20441;-86
2021/06/05 10:58:25;;;;;;;18.90;16.97;;;26.10;79.90;;;;;;5139256;27;20489;-86
2021/06/05 11:00:54;;;;;;;21.87;19.87;;;26.10;79.70;;;;;;5119851;27;20433;-84
2021/06/05 11:03:49;;;;;;;22.27;20.17;;;26.10;80.00;;;;;;5116668;28;20440;-89
2021/06/05 11:06:17;;;;;;;25.93;20.47;;;26.20;80.10;;;;;;5080882;28;20457;-84
2021/06/05 11:08:48;;;;;;;22.63;18.73;;;26.10;80.00;;;;;;5116454;28;20933;-88
2021/06/05 11:11:48;;;;;;;21.43;19.43;;;26.10;79.90;;;;;;5116582;28;20908;-88
2021/06/05 11:14:50;;;;;;;20.97;18.93;;;26.20;79.90;;;;;;5121249;27;20491;-87
2021/06/05 11:17:32;;;;;;;21.87;18.90;;;26.10;79.90;;;;;;5136744;27;20986;-88
2021/06/05 11:20:35;;;;;;;21.43;19.30;;;26.10;79.80;;;;;;5137010;27;20436;-89
2021/06/05 11:23:10;;;;;;;21.43;18.30;;;26.10;79.50;;;;;;5136885;27;20441;-87
2021/06/05 11:25:41;;;;;;;19.53;17.80;;;26.00;79.60;;;;;;5136979;27;20441;-87
2021/06/05 11:28:28;;;;;;;20.90;18.90;;;26.00;79.60;;;;;;5136585;27;20473;-84
2021/06/05 11:30:55;;;;;;;21.67;19.70;;;26.00;79.60;;;;;;5136935;27;20472;-89
2021/06/05 11:33:43;;;;;;;22.57;20.20;;;26.00;79.80;;;;;;5137123;27;20436;-87
2021/06/05 11:36:45;;;;;;;20.90;18.90;;;26.00;79.70;;;;;;5137506;27;20489;-84
2021/06/05 11:39:35;;;;;;;23.33;21.13;;;26.00;79.60;;;;;;5137997;27;20824;-86
2021/06/05 11:42:03;;;;;;;21.80;19.67;;;26.00;80.00;;;;;;5130802;27;20445;-86
2021/06/05 11:44:38;;;;;;;23.80;21.37;;;26.00;80.00;;;;;;5138110;27;20789;-85
2021/06/05 11:47:35;;;;;;;20.83;18.83;;;25.90;80.00;;;;;;5139834;27;20452;-83
2021/06/05 11:50:34;;;;;;;23.00;20.80;;;26.00;79.50;;;;;;5139526;27;20458;-84
2021/06/05 11:53:29;;;;;;;23.10;20.73;;;26.00;80.00;;;;;;5129121;27;20464;-87
2021/06/05 11:55:59;;;;;;;21.50;19.20;;;26.00;79.80;;;;;;5136907;27;20447;-84
2021/06/05 11:58:32;;;;;;;23.27;21.00;;;25.90;79.50;;;;;;5137752;27;20488;-86
2021/06/05 12:01:13;;;;;;;21.10;18.90;;;25.90;80.10;;;;;;5119083;27;20471;-86
2021/06/05 12:03:45;;;;;;;24.40;21.90;;;25.90;80.20;;;;;;5137858;27;20481;-91
2021/06/05 12:06:16;;;;;;;28.13;24.03;;;25.80;80.50;;;;;;5137854;27;20863;-96
2021/06/05 12:08:43;;;;;;;23.53;21.33;;;25.80;80.60;;;;;;5137468;27;20474;-95
2021/06/05 12:11:23;;;;;;;24.90;22.57;;;25.90;80.80;;;;;;5137286;27;20939;-89
2021/06/05 12:13:50;;;;;;;23.13;20.97;;;25.80;80.60;;;;;;5137537;27;20539;-96
2021/06/05 12:16:19;;;;;;;24.03;21.57;;;26.00;80.90;;;;;;5137511;27;20498;-95
2021/06/05 12:18:47;;;;;;;23.17;20.67;;;25.80;80.70;;;;;;5137846;27;20492;-94
2021/06/05 12:21:28;;;;;;;23.43;21.03;;;25.80;80.70;;;;;;5136552;27;20441;-88
2021/06/05 12:23:56;;;;;;;25.93;23.43;;;25.80;80.70;;;;;;5138233;27;20440;-96
2021/06/05 12:26:24;;;;;;;23.97;21.47;;;25.80;81.50;;;;;;5139225;27;20522;-88
2021/06/05 12:28:53;;;;;;;23.53;20.87;;;25.80;82.70;;;;;;5137329;27;20440;-88
2021/06/05 12:31:28;;;;;;;22.27;19.93;;;25.80;82.30;;;;;;5136089;27;20486;-88
2021/06/05 12:33:57;;;;;;;21.80;19.70;;;25.80;81.20;;;;;;5136130;27;20891;-89
2021/06/05 12:36:26;;;;;;;21.87;19.53;;;25.80;80.60;;;;;;5141014;27;20449;-88
2021/06/05 12:38:57;;;;;;;21.73;19.63;;;26.00;80.70;;;;;;5135182;27;21091;-88
2021/06/05 12:41:26;;;;;;;21.27;19.27;;;25.90;80.40;;;;;;5134768;27;20535;-86
2021/06/05 12:43:53;;;;;;;20.40;18.43;;;25.90;80.30;;;;;;5134270;27;20451;-87
2021/06/05 12:46:26;;;;;;;22.47;20.20;;;25.90;80.40;;;;;;5135140;27;20437;-87
2021/06/05 12:48:57;;;;;;;22.27;20.13;;;25.90;81.00;;;;;;5124390;27;20871;-87
2021/06/05 12:51:29;;;;;;;24.40;21.67;;;25.90;81.00;;;;;;5117595;27;20445;-87
2021/06/05 12:53:58;;;;;;;23.07;20.83;;;25.90;81.30;;;;;;5135791;27;20786;-86
2021/06/05 12:56:36;;;;;;;22.10;19.90;;;25.90;81.10;;;;;;5115087;27;20467;-85